sensor_id;sensor_type;location;lat;lon;timestamp;P1;durP1;ratioP1;P2;durP2;ratioP2
62673;SDS011;62269;47.594;17.638;2023-04-19T00:00:43;19.87;;;16.83;;
62673;SDS011;62269;47.594;17.638;2023-04-19T00:01:30;20.77;;;16.15;;
62673;SDS011;62269;47.594;17.638;2023-04-19T00:02:18;19.77;;;16.58;;
62673;SDS011;62269;47.594;17.638;2023-04-19T00:03:06;17.15;;;14.75;;
62673;SDS011;62269;47.594;17.638;2023-04-19T00:03:54;19.60;;;16.08;;
62673;SDS011;62269;47.594;17.638;2023-04-19T00:04:44;22.85;;;16.37;;
62673;SDS011;62269;47.594;17.638;2023-04-19T00:05:33;20.05;;;15.93;;
62673;SDS011;62269;47.594;17.638;2023-04-19T00:06:20;20.73;;;16.05;;
62673;SDS011;62269;47.594;17.638;2023-04-19T00:07:07;20.52;;;16.20;;
62673;SDS011;62269;47.594;17.638;2023-04-19T00:07:54;18.27;;;15.60;;
62673;SDS011;62269;47.594;17.638;2023-04-19T00:08:41;17.62;;;15.13;;
62673;SDS011;62269;47.594;17.638;2023-04-19T00:09:28;19.00;;;16.15;;
62673;SDS011;62269;47.594;17.638;2023-04-19T00:10:15;17.65;;;14.57;;
62673;SDS011;62269;47.594;17.638;2023-04-19T00:11:03;20.67;;;15.60;;
62673;SDS011;62269;47.594;17.638;2023-04-19T00:11:50;18.62;;;15.15;;
62673;SDS011;62269;47.594;17.638;2023-04-19T00:12:38;18.83;;;15.40;;
62673;SDS011;62269;47.594;17.638;2023-04-19T00:13:25;20.52;;;16.05;;
62673;SDS011;62269;47.594;17.638;2023-04-19T00:14:12;17.62;;;14.98;;
62673;SDS011;62269;47.594;17.638;2023-04-19T00:15:00;21.83;;;15.73;;
62673;SDS011;62269;47.594;17.638;2023-04-19T00:15:47;18.55;;;15.30;;
62673;SDS011;62269;47.594;17.638;2023-04-19T00:16:34;21.05;;;15.98;;
62673;SDS011;62269;47.594;17.638;2023-04-19T00:17:22;19.55;;;15.63;;
62673;SDS011;62269;47.594;17.638;2023-04-19T00:18:09;17.87;;;15.88;;
62673;SDS011;62269;47.594;17.638;2023-04-19T00:18:56;18.48;;;15.77;;
62673;SDS011;62269;47.594;17.638;2023-04-19T00:19:43;19.08;;;15.90;;
62673;SDS011;62269;47.594;17.638;2023-04-19T00:20:30;20.10;;;16.20;;
62673;SDS011;62269;47.594;17.638;2023-04-19T00:21:17;18.62;;;15.98;;
62673;SDS011;62269;47.594;17.638;2023-04-19T00:22:04;22.10;;;15.75;;
62673;SDS011;62269;47.594;17.638;2023-04-19T00:22:51;21.50;;;15.90;;
62673;SDS011;62269;47.594;17.638;2023-04-19T00:23:39;21.67;;;15.70;;
62673;SDS011;62269;47.594;17.638;2023-04-19T00:24:26;27.92;;;16.08;;
62673;SDS011;62269;47.594;17.638;2023-04-19T00:25:13;21.08;;;15.73;;
62673;SDS011;62269;47.594;17.638;2023-04-19T00:26:03;20.65;;;16.77;;
62673;SDS011;62269;47.594;17.638;2023-04-19T00:26:50;19.02;;;15.73;;
62673;SDS011;62269;47.594;17.638;2023-04-19T00:27:37;18.08;;;15.65;;
62673;SDS011;62269;47.594;17.638;2023-04-19T00:28:24;17.90;;;15.18;;
62673;SDS011;62269;47.594;17.638;2023-04-19T00:29:11;19.85;;;16.52;;
62673;SDS011;62269;47.594;17.638;2023-04-19T00:29:59;19.33;;;15.32;;
62673;SDS011;62269;47.594;17.638;2023-04-19T00:30:46;18.83;;;15.95;;
62673;SDS011;62269;47.594;17.638;2023-04-19T00:31:34;20.10;;;16.23;;
62673;SDS011;62269;47.594;17.638;2023-04-19T00:32:21;19.08;;;16.48;;
62673;SDS011;62269;47.594;17.638;2023-04-19T00:33:08;19.35;;;15.98;;
62673;SDS011;62269;47.594;17.638;2023-04-19T00:33:58;21.37;;;16.23;;
62673;SDS011;62269;47.594;17.638;2023-04-19T00:34:45;18.98;;;15.73;;
62673;SDS011;62269;47.594;17.638;2023-04-19T00:35:32;21.10;;;16.40;;
62673;SDS011;62269;47.594;17.638;2023-04-19T00:36:19;19.08;;;15.70;;
62673;SDS011;62269;47.594;17.638;2023-04-19T00:37:07;18.30;;;15.80;;
62673;SDS011;62269;47.594;17.638;2023-04-19T00:37:54;19.55;;;15.02;;
62673;SDS011;62269;47.594;17.638;2023-04-19T00:38:41;18.12;;;15.90;;
62673;SDS011;62269;47.594;17.638;2023-04-19T00:39:28;18.40;;;14.57;;
62673;SDS011;62269;47.594;17.638;2023-04-19T00:40:15;17.67;;;14.82;;
62673;SDS011;62269;47.594;17.638;2023-04-19T00:41:02;17.62;;;15.07;;
62673;SDS011;62269;47.594;17.638;2023-04-19T00:41:49;17.37;;;15.40;;
62673;SDS011;62269;47.594;17.638;2023-04-19T00:42:36;18.87;;;15.73;;
62673;SDS011;62269;47.594;17.638;2023-04-19T00:43:23;17.40;;;15.35;;
62673;SDS011;62269;47.594;17.638;2023-04-19T00:44:10;19.17;;;15.07;;
62673;SDS011;62269;47.594;17.638;2023-04-19T00:44:58;20.90;;;14.32;;
62673;SDS011;62269;47.594;17.638;2023-04-19T00:45:45;19.45;;;15.07;;
62673;SDS011;62269;47.594;17.638;2023-04-19T00:46:32;17.85;;;15.18;;
62673;SDS011;62269;47.594;17.638;2023-04-19T00:47:19;16.90;;;14.80;;
62673;SDS011;62269;47.594;17.638;2023-04-19T00:48:06;19.70;;;15.77;;
62673;SDS011;62269;47.594;17.638;2023-04-19T00:48:53;18.95;;;16.27;;
62673;SDS011;62269;47.594;17.638;2023-04-19T00:49:41;18.12;;;15.30;;
62673;SDS011;62269;47.594;17.638;2023-04-19T00:50:27;18.50;;;15.20;;
62673;SDS011;62269;47.594;17.638;2023-04-19T00:51:15;18.80;;;15.45;;
62673;SDS011;62269;47.594;17.638;2023-04-19T00:52:02;19.05;;;14.87;;
62673;SDS011;62269;47.594;17.638;2023-04-19T00:52:49;20.17;;;15.95;;
62673;SDS011;62269;47.594;17.638;2023-04-19T00:53:38;18.67;;;14.57;;
62673;SDS011;62269;47.594;17.638;2023-04-19T00:54:26;20.88;;;14.85;;
62673;SDS011;62269;47.594;17.638;2023-04-19T00:55:13;19.70;;;16.27;;
62673;SDS011;62269;47.594;17.638;2023-04-19T00:56:01;20.92;;;15.93;;
62673;SDS011;62269;47.594;17.638;2023-04-19T00:56:50;20.05;;;15.68;;
62673;SDS011;62269;47.594;17.638;2023-04-19T00:57:37;22.37;;;15.77;;
62673;SDS011;62269;47.594;17.638;2023-04-19T00:58:24;22.83;;;16.15;;
62673;SDS011;62269;47.594;17.638;2023-04-19T00:59:13;19.08;;;16.17;;
62673;SDS011;62269;47.594;17.638;2023-04-19T01:00:00;21.05;;;17.20;;
62673;SDS011;62269;47.594;17.638;2023-04-19T01:00:47;21.15;;;16.20;;
62673;SDS011;62269;47.594;17.638;2023-04-19T01:01:34;21.30;;;16.27;;
62673;SDS011;62269;47.594;17.638;2023-04-19T01:02:22;17.98;;;15.25;;
62673;SDS011;62269;47.594;17.638;2023-04-19T01:03:09;21.50;;;15.80;;
62673;SDS011;62269;47.594;17.638;2023-04-19T01:03:57;32.25;;;16.90;;
62673;SDS011;62269;47.594;17.638;2023-04-19T01:04:44;19.60;;;16.35;;
62673;SDS011;62269;47.594;17.638;2023-04-19T01:05:31;20.90;;;15.55;;
62673;SDS011;62269;47.594;17.638;2023-04-19T01:06:18;20.70;;;16.30;;
62673;SDS011;62269;47.594;17.638;2023-04-19T01:07:06;21.35;;;16.65;;
62673;SDS011;62269;47.594;17.638;2023-04-19T01:07:54;20.20;;;16.15;;
62673;SDS011;62269;47.594;17.638;2023-04-19T01:08:41;19.58;;;16.05;;
62673;SDS011;62269;47.594;17.638;2023-04-19T01:09:28;23.62;;;16.20;;
62673;SDS011;62269;47.594;17.638;2023-04-19T01:10:15;20.75;;;15.50;;
62673;SDS011;62269;47.594;17.638;2023-04-19T01:11:02;19.60;;;15.75;;
62673;SDS011;62269;47.594;17.638;2023-04-19T01:11:49;19.65;;;15.85;;
62673;SDS011;62269;47.594;17.638;2023-04-19T01:12:37;19.65;;;15.00;;
62673;SDS011;62269;47.594;17.638;2023-04-19T01:13:24;16.87;;;14.07;;
62673;SDS011;62269;47.594;17.638;2023-04-19T01:14:11;17.65;;;15.48;;
62673;SDS011;62269;47.594;17.638;2023-04-19T01:14:58;18.15;;;15.82;;
62673;SDS011;62269;47.594;17.638;2023-04-19T01:15:46;18.90;;;15.70;;
62673;SDS011;62269;47.594;17.638;2023-04-19T01:16:33;17.92;;;15.35;;
62673;SDS011;62269;47.594;17.638;2023-04-19T01:17:21;18.08;;;14.90;;
62673;SDS011;62269;47.594;17.638;2023-04-19T01:18:09;18.45;;;15.43;;
62673;SDS011;62269;47.594;17.638;2023-04-19T01:18:56;19.02;;;15.20;;
62673;SDS011;62269;47.594;17.638;2023-04-19T01:19:44;17.00;;;14.98;;
62673;SDS011;62269;47.594;17.638;2023-04-19T01:20:31;23.62;;;15.40;;
62673;SDS011;62269;47.594;17.638;2023-04-19T01:21:18;18.77;;;15.55;;
62673;SDS011;62269;47.594;17.638;2023-04-19T01:22:08;17.33;;;15.02;;
62673;SDS011;62269;47.594;17.638;2023-04-19T01:22:55;18.27;;;15.80;;
62673;SDS011;62269;47.594;17.638;2023-04-19T01:23:42;21.35;;;15.73;;
62673;SDS011;62269;47.594;17.638;2023-04-19T01:24:29;18.98;;;16.52;;
62673;SDS011;62269;47.594;17.638;2023-04-19T01:25:16;19.58;;;16.17;;
62673;SDS011;62269;47.594;17.638;2023-04-19T01:26:03;17.87;;;15.48;;
62673;SDS011;62269;47.594;17.638;2023-04-19T01:26:50;18.58;;;15.85;;
62673;SDS011;62269;47.594;17.638;2023-04-19T01:27:37;18.48;;;15.35;;
62673;SDS011;62269;47.594;17.638;2023-04-19T01:28:24;18.55;;;16.05;;
62673;SDS011;62269;47.594;17.638;2023-04-19T01:29:11;20.88;;;16.62;;
62673;SDS011;62269;47.594;17.638;2023-04-19T01:29:58;18.70;;;14.73;;
62673;SDS011;62269;47.594;17.638;2023-04-19T01:30:46;19.73;;;15.52;;
62673;SDS011;62269;47.594;17.638;2023-04-19T01:31:33;16.90;;;14.73;;
62673;SDS011;62269;47.594;17.638;2023-04-19T01:32:20;18.62;;;15.75;;
62673;SDS011;62269;47.594;17.638;2023-04-19T01:33:07;18.90;;;15.43;;
62673;SDS011;62269;47.594;17.638;2023-04-19T01:33:54;18.00;;;15.88;;
62673;SDS011;62269;47.594;17.638;2023-04-19T01:34:41;18.65;;;15.38;;
62673;SDS011;62269;47.594;17.638;2023-04-19T01:35:28;19.98;;;15.95;;
62673;SDS011;62269;47.594;17.638;2023-04-19T01:36:16;21.17;;;16.60;;
62673;SDS011;62269;47.594;17.638;2023-04-19T01:37:02;19.60;;;16.60;;
62673;SDS011;62269;47.594;17.638;2023-04-19T01:37:49;19.80;;;15.32;;
62673;SDS011;62269;47.594;17.638;2023-04-19T01:38:38;17.95;;;15.68;;
62673;SDS011;62269;47.594;17.638;2023-04-19T01:39:25;20.45;;;16.12;;
62673;SDS011;62269;47.594;17.638;2023-04-19T01:40:13;19.60;;;15.38;;
62673;SDS011;62269;47.594;17.638;2023-04-19T01:41:00;20.73;;;16.45;;
62673;SDS011;62269;47.594;17.638;2023-04-19T01:41:47;18.52;;;15.88;;
62673;SDS011;62269;47.594;17.638;2023-04-19T01:42:34;18.83;;;16.33;;
62673;SDS011;62269;47.594;17.638;2023-04-19T01:43:21;22.67;;;16.65;;
62673;SDS011;62269;47.594;17.638;2023-04-19T01:44:08;21.23;;;16.20;;
62673;SDS011;62269;47.594;17.638;2023-04-19T01:44:55;19.95;;;15.65;;
62673;SDS011;62269;47.594;17.638;2023-04-19T01:45:42;20.62;;;17.35;;
62673;SDS011;62269;47.594;17.638;2023-04-19T01:46:29;18.42;;;16.42;;
62673;SDS011;62269;47.594;17.638;2023-04-19T01:47:16;18.55;;;15.05;;
62673;SDS011;62269;47.594;17.638;2023-04-19T01:48:03;21.90;;;16.27;;
62673;SDS011;62269;47.594;17.638;2023-04-19T01:48:50;20.00;;;16.08;;
62673;SDS011;62269;47.594;17.638;2023-04-19T01:49:38;21.58;;;15.75;;
62673;SDS011;62269;47.594;17.638;2023-04-19T01:50:25;18.87;;;16.35;;
62673;SDS011;62269;47.594;17.638;2023-04-19T01:51:12;18.23;;;15.80;;
62673;SDS011;62269;47.594;17.638;2023-04-19T01:51:59;18.87;;;16.67;;
62673;SDS011;62269;47.594;17.638;2023-04-19T01:52:46;26.80;;;16.75;;
62673;SDS011;62269;47.594;17.638;2023-04-19T01:53:33;19.15;;;16.12;;
62673;SDS011;62269;47.594;17.638;2023-04-19T01:54:20;22.02;;;16.40;;
62673;SDS011;62269;47.594;17.638;2023-04-19T01:55:07;21.77;;;17.20;;
62673;SDS011;62269;47.594;17.638;2023-04-19T01:55:54;21.58;;;17.27;;
62673;SDS011;62269;47.594;17.638;2023-04-19T01:56:42;20.35;;;15.95;;
62673;SDS011;62269;47.594;17.638;2023-04-19T01:57:29;21.30;;;16.50;;
62673;SDS011;62269;47.594;17.638;2023-04-19T01:58:16;19.45;;;15.48;;
62673;SDS011;62269;47.594;17.638;2023-04-19T01:59:03;19.80;;;16.20;;
62673;SDS011;62269;47.594;17.638;2023-04-19T01:59:51;21.52;;;15.68;;
62673;SDS011;62269;47.594;17.638;2023-04-19T02:00:39;19.08;;;15.77;;
62673;SDS011;62269;47.594;17.638;2023-04-19T02:01:26;22.02;;;16.12;;
62673;SDS011;62269;47.594;17.638;2023-04-19T02:02:13;20.42;;;16.55;;
62673;SDS011;62269;47.594;17.638;2023-04-19T02:03:00;20.67;;;16.55;;
62673;SDS011;62269;47.594;17.638;2023-04-19T02:03:47;19.75;;;16.45;;
62673;SDS011;62269;47.594;17.638;2023-04-19T02:04:35;18.90;;;16.23;;
62673;SDS011;62269;47.594;17.638;2023-04-19T02:05:22;22.17;;;16.15;;
62673;SDS011;62269;47.594;17.638;2023-04-19T02:06:13;20.73;;;15.63;;
62673;SDS011;62269;47.594;17.638;2023-04-19T02:07:00;19.10;;;15.40;;
62673;SDS011;62269;47.594;17.638;2023-04-19T02:07:47;20.20;;;15.95;;
62673;SDS011;62269;47.594;17.638;2023-04-19T02:08:34;20.48;;;16.30;;
62673;SDS011;62269;47.594;17.638;2023-04-19T02:09:21;18.50;;;15.57;;
62673;SDS011;62269;47.594;17.638;2023-04-19T02:10:09;19.52;;;15.90;;
62673;SDS011;62269;47.594;17.638;2023-04-19T02:10:59;19.20;;;15.70;;
62673;SDS011;62269;47.594;17.638;2023-04-19T02:11:46;18.30;;;15.93;;
62673;SDS011;62269;47.594;17.638;2023-04-19T02:12:33;19.77;;;15.98;;
62673;SDS011;62269;47.594;17.638;2023-04-19T02:13:20;19.58;;;16.17;;
62673;SDS011;62269;47.594;17.638;2023-04-19T02:14:07;18.87;;;15.15;;
62673;SDS011;62269;47.594;17.638;2023-04-19T02:14:55;19.75;;;15.63;;
62673;SDS011;62269;47.594;17.638;2023-04-19T02:15:45;17.98;;;15.35;;
62673;SDS011;62269;47.594;17.638;2023-04-19T02:16:32;22.45;;;16.48;;
62673;SDS011;62269;47.594;17.638;2023-04-19T02:17:22;20.67;;;15.00;;
62673;SDS011;62269;47.594;17.638;2023-04-19T02:18:09;20.23;;;16.42;;
62673;SDS011;62269;47.594;17.638;2023-04-19T02:18:57;18.48;;;15.65;;
62673;SDS011;62269;47.594;17.638;2023-04-19T02:19:44;18.77;;;15.23;;
62673;SDS011;62269;47.594;17.638;2023-04-19T02:20:31;17.37;;;15.07;;
62673;SDS011;62269;47.594;17.638;2023-04-19T02:21:18;17.10;;;14.27;;
62673;SDS011;62269;47.594;17.638;2023-04-19T02:22:05;18.73;;;15.52;;
62673;SDS011;62269;47.594;17.638;2023-04-19T02:22:52;18.45;;;15.35;;
62673;SDS011;62269;47.594;17.638;2023-04-19T02:23:39;19.15;;;15.55;;
62673;SDS011;62269;47.594;17.638;2023-04-19T02:24:26;18.50;;;15.75;;
62673;SDS011;62269;47.594;17.638;2023-04-19T02:25:13;17.98;;;15.07;;
62673;SDS011;62269;47.594;17.638;2023-04-19T02:26:02;18.08;;;15.77;;
62673;SDS011;62269;47.594;17.638;2023-04-19T02:26:49;16.48;;;14.07;;
62673;SDS011;62269;47.594;17.638;2023-04-19T02:27:36;18.37;;;15.48;;
62673;SDS011;62269;47.594;17.638;2023-04-19T02:28:23;18.37;;;15.05;;
62673;SDS011;62269;47.594;17.638;2023-04-19T02:29:10;19.70;;;15.18;;
62673;SDS011;62269;47.594;17.638;2023-04-19T02:29:57;18.20;;;15.15;;
62673;SDS011;62269;47.594;17.638;2023-04-19T02:30:44;17.98;;;15.40;;
62673;SDS011;62269;47.594;17.638;2023-04-19T02:31:31;19.35;;;15.93;;
62673;SDS011;62269;47.594;17.638;2023-04-19T02:32:18;19.52;;;14.50;;
62673;SDS011;62269;47.594;17.638;2023-04-19T02:33:06;22.58;;;15.77;;
62673;SDS011;62269;47.594;17.638;2023-04-19T02:33:53;17.92;;;15.32;;
62673;SDS011;62269;47.594;17.638;2023-04-19T02:34:40;19.67;;;15.43;;
62673;SDS011;62269;47.594;17.638;2023-04-19T02:35:27;19.87;;;16.17;;
62673;SDS011;62269;47.594;17.638;2023-04-19T02:36:14;16.85;;;14.40;;
62673;SDS011;62269;47.594;17.638;2023-04-19T02:37:01;21.12;;;15.85;;
62673;SDS011;62269;47.594;17.638;2023-04-19T02:37:48;19.58;;;15.35;;
62673;SDS011;62269;47.594;17.638;2023-04-19T02:38:35;17.00;;;14.00;;
62673;SDS011;62269;47.594;17.638;2023-04-19T02:39:22;20.90;;;16.08;;
62673;SDS011;62269;47.594;17.638;2023-04-19T02:40:10;19.33;;;15.40;;
62673;SDS011;62269;47.594;17.638;2023-04-19T02:40:57;18.52;;;14.32;;
62673;SDS011;62269;47.594;17.638;2023-04-19T02:41:46;20.45;;;15.63;;
62673;SDS011;62269;47.594;17.638;2023-04-19T02:42:33;18.95;;;14.63;;
62673;SDS011;62269;47.594;17.638;2023-04-19T02:43:20;19.40;;;15.73;;
62673;SDS011;62269;47.594;17.638;2023-04-19T02:44:07;20.50;;;15.88;;
62673;SDS011;62269;47.594;17.638;2023-04-19T02:44:54;18.45;;;15.27;;
62673;SDS011;62269;47.594;17.638;2023-04-19T02:45:41;20.02;;;15.35;;
62673;SDS011;62269;47.594;17.638;2023-04-19T02:46:28;17.15;;;13.77;;
62673;SDS011;62269;47.594;17.638;2023-04-19T02:47:16;18.85;;;15.02;;
62673;SDS011;62269;47.594;17.638;2023-04-19T02:48:03;17.00;;;15.10;;
62673;SDS011;62269;47.594;17.638;2023-04-19T02:48:50;17.23;;;13.98;;
62673;SDS011;62269;47.594;17.638;2023-04-19T02:49:37;15.82;;;14.07;;
62673;SDS011;62269;47.594;17.638;2023-04-19T02:50:26;20.10;;;15.93;;
62673;SDS011;62269;47.594;17.638;2023-04-19T02:51:14;20.25;;;14.73;;
62673;SDS011;62269;47.594;17.638;2023-04-19T02:52:02;17.20;;;14.30;;
62673;SDS011;62269;47.594;17.638;2023-04-19T02:52:49;18.10;;;14.87;;
62673;SDS011;62269;47.594;17.638;2023-04-19T02:53:36;19.35;;;15.50;;
62673;SDS011;62269;47.594;17.638;2023-04-19T02:54:23;18.92;;;15.20;;
62673;SDS011;62269;47.594;17.638;2023-04-19T02:55:10;19.30;;;14.77;;
62673;SDS011;62269;47.594;17.638;2023-04-19T02:55:57;18.45;;;14.65;;
62673;SDS011;62269;47.594;17.638;2023-04-19T02:56:44;19.65;;;14.10;;
62673;SDS011;62269;47.594;17.638;2023-04-19T02:57:31;19.60;;;14.15;;
62673;SDS011;62269;47.594;17.638;2023-04-19T02:58:18;19.45;;;14.52;;
62673;SDS011;62269;47.594;17.638;2023-04-19T02:59:05;18.10;;;15.23;;
62673;SDS011;62269;47.594;17.638;2023-04-19T02:59:53;17.73;;;14.60;;
62673;SDS011;62269;47.594;17.638;2023-04-19T03:00:40;16.65;;;14.40;;
62673;SDS011;62269;47.594;17.638;2023-04-19T03:01:27;17.62;;;14.00;;
62673;SDS011;62269;47.594;17.638;2023-04-19T03:02:14;17.50;;;14.65;;
62673;SDS011;62269;47.594;17.638;2023-04-19T03:03:01;18.25;;;14.07;;
62673;SDS011;62269;47.594;17.638;2023-04-19T03:03:51;21.55;;;13.77;;
62673;SDS011;62269;47.594;17.638;2023-04-19T03:04:38;15.98;;;13.50;;
62673;SDS011;62269;47.594;17.638;2023-04-19T03:05:25;17.80;;;14.30;;
62673;SDS011;62269;47.594;17.638;2023-04-19T03:06:12;19.98;;;15.07;;
62673;SDS011;62269;47.594;17.638;2023-04-19T03:07:00;20.37;;;15.02;;
62673;SDS011;62269;47.594;17.638;2023-04-19T03:07:47;15.98;;;14.13;;
62673;SDS011;62269;47.594;17.638;2023-04-19T03:08:34;16.60;;;14.23;;
62673;SDS011;62269;47.594;17.638;2023-04-19T03:09:21;15.77;;;13.98;;
62673;SDS011;62269;47.594;17.638;2023-04-19T03:10:08;18.42;;;14.48;;
62673;SDS011;62269;47.594;17.638;2023-04-19T03:10:56;15.75;;;13.77;;
62673;SDS011;62269;47.594;17.638;2023-04-19T03:11:44;15.57;;;13.35;;
62673;SDS011;62269;47.594;17.638;2023-04-19T03:12:31;18.50;;;13.98;;
62673;SDS011;62269;47.594;17.638;2023-04-19T03:13:18;16.55;;;13.75;;
62673;SDS011;62269;47.594;17.638;2023-04-19T03:14:05;16.87;;;13.68;;
62673;SDS011;62269;47.594;17.638;2023-04-19T03:14:53;16.37;;;13.23;;
62673;SDS011;62269;47.594;17.638;2023-04-19T03:15:40;15.57;;;12.85;;
62673;SDS011;62269;47.594;17.638;2023-04-19T03:16:27;17.00;;;13.23;;
62673;SDS011;62269;47.594;17.638;2023-04-19T03:17:15;17.42;;;13.85;;
62673;SDS011;62269;47.594;17.638;2023-04-19T03:18:02;15.65;;;13.93;;
62673;SDS011;62269;47.594;17.638;2023-04-19T03:18:49;16.30;;;13.38;;
62673;SDS011;62269;47.594;17.638;2023-04-19T03:19:36;16.00;;;13.75;;
62673;SDS011;62269;47.594;17.638;2023-04-19T03:20:24;19.08;;;13.90;;
62673;SDS011;62269;47.594;17.638;2023-04-19T03:21:11;17.05;;;12.10;;
62673;SDS011;62269;47.594;17.638;2023-04-19T03:21:58;16.85;;;13.85;;
62673;SDS011;62269;47.594;17.638;2023-04-19T03:22:45;15.82;;;12.77;;
62673;SDS011;62269;47.594;17.638;2023-04-19T03:23:32;15.73;;;12.88;;
62673;SDS011;62269;47.594;17.638;2023-04-19T03:24:25;16.30;;;13.57;;
62673;SDS011;62269;47.594;17.638;2023-04-19T03:25:14;15.57;;;12.02;;
62673;SDS011;62269;47.594;17.638;2023-04-19T03:26:03;15.88;;;12.85;;
62673;SDS011;62269;47.594;17.638;2023-04-19T03:26:50;16.58;;;13.18;;
62673;SDS011;62269;47.594;17.638;2023-04-19T03:27:37;15.73;;;12.93;;
62673;SDS011;62269;47.594;17.638;2023-04-19T03:28:24;17.30;;;13.45;;
62673;SDS011;62269;47.594;17.638;2023-04-19T03:29:12;19.58;;;13.15;;
62673;SDS011;62269;47.594;17.638;2023-04-19T03:29:59;16.40;;;12.68;;
62673;SDS011;62269;47.594;17.638;2023-04-19T03:30:46;15.63;;;13.43;;
62673;SDS011;62269;47.594;17.638;2023-04-19T03:31:33;18.30;;;13.13;;
62673;SDS011;62269;47.594;17.638;2023-04-19T03:32:21;17.15;;;13.48;;
62673;SDS011;62269;47.594;17.638;2023-04-19T03:33:08;16.80;;;12.77;;
62673;SDS011;62269;47.594;17.638;2023-04-19T03:33:55;17.02;;;12.82;;
62673;SDS011;62269;47.594;17.638;2023-04-19T03:34:42;16.17;;;12.88;;
62673;SDS011;62269;47.594;17.638;2023-04-19T03:35:29;16.90;;;13.57;;
62673;SDS011;62269;47.594;17.638;2023-04-19T03:36:17;16.25;;;12.77;;
62673;SDS011;62269;47.594;17.638;2023-04-19T03:37:04;16.77;;;13.23;;
62673;SDS011;62269;47.594;17.638;2023-04-19T03:37:51;16.70;;;12.73;;
62673;SDS011;62269;47.594;17.638;2023-04-19T03:38:38;18.08;;;12.77;;
62673;SDS011;62269;47.594;17.638;2023-04-19T03:39:26;18.90;;;12.85;;
62673;SDS011;62269;47.594;17.638;2023-04-19T03:40:13;14.35;;;11.85;;
62673;SDS011;62269;47.594;17.638;2023-04-19T03:41:00;15.48;;;12.27;;
62673;SDS011;62269;47.594;17.638;2023-04-19T03:41:47;18.40;;;13.73;;
62673;SDS011;62269;47.594;17.638;2023-04-19T03:42:34;15.73;;;12.68;;
62673;SDS011;62269;47.594;17.638;2023-04-19T03:43:21;15.15;;;12.35;;
62673;SDS011;62269;47.594;17.638;2023-04-19T03:44:09;15.82;;;13.02;;
62673;SDS011;62269;47.594;17.638;2023-04-19T03:44:57;16.98;;;12.85;;
62673;SDS011;62269;47.594;17.638;2023-04-19T03:45:44;15.05;;;11.57;;
62673;SDS011;62269;47.594;17.638;2023-04-19T03:46:30;15.85;;;13.15;;
62673;SDS011;62269;47.594;17.638;2023-04-19T03:47:18;15.77;;;12.48;;
62673;SDS011;62269;47.594;17.638;2023-04-19T03:48:05;14.98;;;12.02;;
62673;SDS011;62269;47.594;17.638;2023-04-19T03:48:52;14.43;;;12.05;;
62673;SDS011;62269;47.594;17.638;2023-04-19T03:49:39;15.70;;;11.85;;
62673;SDS011;62269;47.594;17.638;2023-04-19T03:50:26;14.75;;;11.95;;
62673;SDS011;62269;47.594;17.638;2023-04-19T03:51:13;15.55;;;12.52;;
62673;SDS011;62269;47.594;17.638;2023-04-19T03:52:01;15.07;;;12.57;;
62673;SDS011;62269;47.594;17.638;2023-04-19T03:52:48;16.42;;;12.48;;
62673;SDS011;62269;47.594;17.638;2023-04-19T03:53:35;16.87;;;12.27;;
62673;SDS011;62269;47.594;17.638;2023-04-19T03:54:22;15.18;;;12.65;;
62673;SDS011;62269;47.594;17.638;2023-04-19T03:55:09;18.20;;;12.80;;
62673;SDS011;62269;47.594;17.638;2023-04-19T03:55:58;14.87;;;12.48;;
62673;SDS011;62269;47.594;17.638;2023-04-19T03:56:44;16.55;;;12.52;;
62673;SDS011;62269;47.594;17.638;2023-04-19T03:57:31;15.93;;;13.25;;
62673;SDS011;62269;47.594;17.638;2023-04-19T03:58:18;15.55;;;11.88;;
62673;SDS011;62269;47.594;17.638;2023-04-19T03:59:05;15.25;;;12.25;;
62673;SDS011;62269;47.594;17.638;2023-04-19T03:59:53;16.37;;;12.90;;
62673;SDS011;62269;47.594;17.638;2023-04-19T04:00:40;15.75;;;12.45;;
62673;SDS011;62269;47.594;17.638;2023-04-19T04:01:27;15.45;;;13.27;;
62673;SDS011;62269;47.594;17.638;2023-04-19T04:02:14;17.50;;;12.85;;
62673;SDS011;62269;47.594;17.638;2023-04-19T04:03:01;14.57;;;12.73;;
62673;SDS011;62269;47.594;17.638;2023-04-19T04:03:48;15.02;;;12.37;;
62673;SDS011;62269;47.594;17.638;2023-04-19T04:04:36;15.25;;;12.63;;
62673;SDS011;62269;47.594;17.638;2023-04-19T04:05:25;14.90;;;12.20;;
62673;SDS011;62269;47.594;17.638;2023-04-19T04:06:13;15.70;;;13.05;;
62673;SDS011;62269;47.594;17.638;2023-04-19T04:07:01;14.52;;;12.20;;
62673;SDS011;62269;47.594;17.638;2023-04-19T04:07:48;16.40;;;12.05;;
62673;SDS011;62269;47.594;17.638;2023-04-19T04:08:35;15.73;;;12.82;;
62673;SDS011;62269;47.594;17.638;2023-04-19T04:09:22;16.30;;;12.40;;
62673;SDS011;62269;47.594;17.638;2023-04-19T04:10:09;14.73;;;11.68;;
62673;SDS011;62269;47.594;17.638;2023-04-19T04:10:56;15.43;;;11.88;;
62673;SDS011;62269;47.594;17.638;2023-04-19T04:11:43;14.95;;;12.32;;
62673;SDS011;62269;47.594;17.638;2023-04-19T04:12:30;14.50;;;12.65;;
62673;SDS011;62269;47.594;17.638;2023-04-19T04:13:17;13.73;;;12.25;;
62673;SDS011;62269;47.594;17.638;2023-04-19T04:14:05;16.30;;;12.32;;
62673;SDS011;62269;47.594;17.638;2023-04-19T04:14:52;17.10;;;12.37;;
62673;SDS011;62269;47.594;17.638;2023-04-19T04:15:39;13.68;;;11.75;;
62673;SDS011;62269;47.594;17.638;2023-04-19T04:16:27;16.95;;;12.45;;
62673;SDS011;62269;47.594;17.638;2023-04-19T04:17:14;16.60;;;11.82;;
62673;SDS011;62269;47.594;17.638;2023-04-19T04:18:01;19.37;;;11.90;;
62673;SDS011;62269;47.594;17.638;2023-04-19T04:18:48;14.38;;;12.05;;
62673;SDS011;62269;47.594;17.638;2023-04-19T04:19:35;15.00;;;12.23;;
62673;SDS011;62269;47.594;17.638;2023-04-19T04:20:22;16.08;;;12.43;;
62673;SDS011;62269;47.594;17.638;2023-04-19T04:21:09;16.30;;;12.85;;
62673;SDS011;62269;47.594;17.638;2023-04-19T04:21:56;14.13;;;12.35;;
62673;SDS011;62269;47.594;17.638;2023-04-19T04:22:44;13.98;;;12.43;;
62673;SDS011;62269;47.594;17.638;2023-04-19T04:23:33;14.48;;;11.43;;
62673;SDS011;62269;47.594;17.638;2023-04-19T04:24:21;15.23;;;12.27;;
62673;SDS011;62269;47.594;17.638;2023-04-19T04:25:08;14.80;;;12.00;;
62673;SDS011;62269;47.594;17.638;2023-04-19T04:25:58;14.43;;;12.18;;
62673;SDS011;62269;47.594;17.638;2023-04-19T04:26:46;18.40;;;12.63;;
62673;SDS011;62269;47.594;17.638;2023-04-19T04:27:35;15.23;;;12.50;;
62673;SDS011;62269;47.594;17.638;2023-04-19T04:28:22;16.27;;;12.75;;
62673;SDS011;62269;47.594;17.638;2023-04-19T04:29:09;14.87;;;13.32;;
62673;SDS011;62269;47.594;17.638;2023-04-19T04:29:56;16.70;;;13.25;;
62673;SDS011;62269;47.594;17.638;2023-04-19T04:30:43;15.43;;;12.20;;
62673;SDS011;62269;47.594;17.638;2023-04-19T04:31:30;15.38;;;11.93;;
62673;SDS011;62269;47.594;17.638;2023-04-19T04:32:17;15.00;;;11.90;;
62673;SDS011;62269;47.594;17.638;2023-04-19T04:33:08;15.25;;;12.27;;